Time,TemperatureF,DewpointF,PressureIn,WindDirection,WindDirectionDegrees,WindSpeedMPH,WindSpeedGustMPH,Humidity,HourlyPrecipIn,Conditions,Clouds,dailyrainin,SoftwareType,DateUTC
2013-09-03 00:01:00,71.2,52.7,29.15,North,357,0.0,2.2,52,0.00,,,0.00,VWS V13.01,2013-09-03 04:01:00,
2013-09-03 00:02:00,71.2,53.2,29.15,North,357,0.0,0.0,53,0.00,,,0.00,VWS V13.01,2013-09-03 04:02:00,
2013-09-03 00:07:00,71.4,53.4,29.15,North,357,2.2,2.2,53,0.00,,,0.00,VWS V13.01,2013-09-03 04:07:00,
2013-09-03 00:12:00,71.4,53.4,29.15,NNW,334,3.1,3.1,53,0.00,,,0.00,VWS V13.01,2013-09-03 04:12:00,
2013-09-03 00:17:00,71.4,53.9,29.15,NNW,337,0.0,0.0,54,0.00,,,0.00,VWS V13.01,2013-09-03 04:17:00,
2013-09-03 00:22:00,71.2,53.8,29.15,NNW,337,0.0,0.0,54,0.00,,,0.00,VWS V13.01,2013-09-03 04:22:00,
2013-09-03 00:27:00,71.2,53.8,29.15,NNW,337,0.0,0.0,54,0.00,,,0.00,VWS V13.01,2013-09-03 04:27:00,
2013-09-03 00:32:00,71.1,53.6,29.15,SE,129,0.0,4.0,54,0.00,,,0.00,VWS V13.01,2013-09-03 04:32:00,
2013-09-03 00:37:00,70.7,53.8,29.15,ESE,103,2.2,4.0,55,0.00,,,0.00,VWS V13.01,2013-09-03 04:37:00,
2013-09-03 00:42:00,70.5,54.1,29.15,SE,139,0.0,2.7,56,0.00,,,0.00,VWS V13.01,2013-09-03 04:42:00,
2013-09-03 00:47:00,70.5,54.6,29.15,SE,124,3.1,3.1,57,0.00,,,0.00,VWS V13.01,2013-09-03 04:47:00,
2013-09-03 00:52:00,70.5,55.0,29.15,East,88,3.6,4.0,58,0.00,,,0.00,VWS V13.01,2013-09-03 04:52:00,
2013-09-03 00:57:00,70.7,55.7,29.15,East,79,3.1,3.6,59,0.00,,,0.00,VWS V13.01,2013-09-03 04:57:00,
2013-09-03 01:02:00,70.7,55.7,29.15,NE,47,0.0,0.0,59,0.00,,,0.00,VWS V13.01,2013-09-03 05:02:00,
2013-09-03 01:07:00,70.7,55.7,29.15,NE,47,0.0,0.0,59,0.00,,,0.00,VWS V13.01,2013-09-03 05:07:00,
2013-09-03 01:12:00,70.5,55.5,29.15,NW,317,0.0,0.0,59,0.00,,,0.00,VWS V13.01,2013-09-03 05:12:00,
2013-09-03 01:17:00,70.5,55.0,29.15,NW,317,0.0,0.0,58,0.00,,,0.00,VWS V13.01,2013-09-03 05:17:00,
2013-09-03 01:22:00,70.3,54.9,29.15,NW,317,0.0,0.0,58,0.00,,,0.00,VWS V13.01,2013-09-03 05:22:00,
2013-09-03 01:27:00,70.3,54.4,29.15,NW,317,0.0,0.0,57,0.00,,,0.00,VWS V13.01,2013-09-03 05:27:00,
2013-09-03 01:32:00,70.2,54.7,29.15,NW,317,0.0,0.0,58,0.00,,,0.00,VWS V13.01,2013-09-03 05:32:00,
2013-09-03 01:37:00,70.2,54.7,29.15,NW,320,0.0,2.7,58,0.00,,,0.00,VWS V13.01,2013-09-03 05:37:00,
2013-09-03 01:42:00,70.2,54.7,29.15,NNW,335,0.0,0.0,58,0.00,,,0.00,VWS V13.01,2013-09-03 05:42:00,
2013-09-03 01:47:00,70.3,54.9,29.15,NNW,335,0.0,0.0,58,0.00,,,0.00,VWS V13.01,2013-09-03 05:47:00,
2013-09-03 01:52:00,70.3,54.9,29.15,SW,219,0.0,2.7,58,0.00,,,0.00,VWS V13.01,2013-09-03 05:52:00,
2013-09-03 01:57:00,70.2,54.2,29.15,SE,141,0.0,0.0,57,0.00,,,0.00,VWS V13.01,2013-09-03 05:57:00,
2013-09-03 02:02:00,70.2,54.7,29.15,SE,141,0.0,0.0,58,0.00,,,0.00,VWS V13.01,2013-09-03 06:02:00,
2013-09-03 02:07:00,70.0,54.5,29.15,SE,141,0.0,0.0,58,0.00,,,0.00,VWS V13.01,2013-09-03 06:07:00,
2013-09-03 02:12:00,70.0,54.5,29.15,SE,141,0.0,0.0,58,0.00,,,0.00,VWS V13.01,2013-09-03 06:12:00,
2013-09-03 02:17:00,70.0,55.0,29.18,SE,141,0.0,0.0,59,0.00,,,0.00,VWS V13.01,2013-09-03 06:17:00,
2013-09-03 02:22:00,70.0,55.0,29.18,SE,141,0.0,0.0,59,0.00,,,0.00,VWS V13.01,2013-09-03 06:22:00,
2013-09-03 02:27:00,70.0,55.0,29.18,SE,141,0.0,0.0,59,0.00,,,0.00,VWS V13.01,2013-09-03 06:27:00,
2013-09-03 02:32:00,70.0,55.0,29.15,SE,140,2.7,3.6,59,0.00,,,0.00,VWS V13.01,2013-09-03 06:32:00,
2013-09-03 02:37:00,69.8,55.3,29.15,SE,129,0.0,2.2,60,0.00,,,0.00,VWS V13.01,2013-09-03 06:37:00,
2013-09-03 02:42:00,69.8,55.3,29.15,SE,129,0.0,0.0,60,0.00,,,0.00,VWS V13.01,2013-09-03 06:42:00,
2013-09-03 02:47:00,69.8,55.3,29.15,SE,129,0.0,0.0,60,0.00,,,0.00,VWS V13.01,2013-09-03 06:47:00,
2013-09-03 02:52:00,69.8,55.3,29.15,North,353,2.7,2.7,60,0.00,,,0.00,VWS V13.01,2013-09-03 06:52:00,
2013-09-03 02:57:00,69.6,55.1,29.15,North,353,2.2,2.7,60,0.00,,,0.00,VWS V13.01,2013-09-03 06:57:00,
2013-09-03 03:02:00,69.8,55.3,29.18,North,353,3.1,3.1,60,0.00,,,0.00,VWS V13.01,2013-09-03 07:02:00,
2013-09-03 03:07:00,69.8,55.8,29.18,North,353,0.0,0.0,61,0.00,,,0.00,VWS V13.01,2013-09-03 07:07:00,
2013-09-03 03:12:00,69.8,55.8,29.18,North,353,0.0,0.0,61,0.00,,,0.00,VWS V13.01,2013-09-03 07:12:00,
2013-09-03 03:17:00,69.6,55.6,29.18,WSW,237,0.0,2.2,61,0.00,,,0.00,VWS V13.01,2013-09-03 07:17:00,
2013-09-03 03:22:00,69.6,55.6,29.18,WSW,237,0.0,0.0,61,0.00,,,0.00,VWS V13.01,2013-09-03 07:22:00,
2013-09-03 03:27:00,69.6,55.6,29.18,WSW,237,0.0,0.0,61,0.00,,,0.00,VWS V13.01,2013-09-03 07:27:00,
2013-09-03 03:32:00,69.6,55.6,29.18,WSW,237,0.0,0.0,61,0.00,,,0.00,VWS V13.01,2013-09-03 07:32:00,
2013-09-03 03:37:00,69.6,55.6,29.18,WSW,237,0.0,0.0,61,0.00,,,0.00,VWS V13.01,2013-09-03 07:37:00,
2013-09-03 03:42:00,69.6,55.6,29.18,WSW,237,0.0,0.0,61,0.00,,,0.00,VWS V13.01,2013-09-03 07:42:00,
2013-09-03 03:47:00,69.6,55.6,29.18,NNW,339,0.0,0.0,61,0.00,,,0.00,VWS V13.01,2013-09-03 07:47:00,
2013-09-03 03:52:00,69.6,55.6,29.18,NW,311,0.0,2.7,61,0.00,,,0.00,VWS V13.01,2013-09-03 07:52:00,
2013-09-03 03:57:00,69.6,55.6,29.18,NW,307,0.0,2.7,61,0.00,,,0.00,VWS V13.01,2013-09-03 07:57:00,
2013-09-03 04:02:00,69.4,55.4,29.15,NW,310,0.0,3.6,61,0.00,,,0.00,VWS V13.01,2013-09-03 08:02:00,
2013-09-03 04:07:00,69.4,55.9,29.15,NW,311,0.0,2.2,62,0.00,,,0.00,VWS V13.01,2013-09-03 08:07:00,
2013-09-03 04:12:00,69.4,55.9,29.15,NW,325,0.0,0.0,62,0.00,,,0.00,VWS V13.01,2013-09-03 08:12:00,
2013-09-03 04:17:00,69.4,55.9,29.18,NW,325,0.0,0.0,62,0.00,,,0.00,VWS V13.01,2013-09-03 08:17:00,
2013-09-03 04:22:00,69.4,55.9,29.18,NW,325,0.0,0.0,62,0.00,,,0.00,VWS V13.01,2013-09-03 08:22:00,
2013-09-03 04:27:00,69.3,55.7,29.18,WNW,292,0.0,0.0,62,0.00,,,0.00,VWS V13.01,2013-09-03 08:27:00,
2013-09-03 04:33:00,69.3,55.7,29.18,WNW,292,0.0,0.0,62,0.00,,,0.00,VWS V13.01,2013-09-03 08:33:00,
2013-09-03 04:38:00,69.3,55.7,29.18,WNW,292,0.0,0.0,62,0.00,,,0.00,VWS V13.01,2013-09-03 08:38:00,
2013-09-03 04:43:00,69.1,55.5,29.18,WNW,292,0.0,0.0,62,0.00,,,0.00,VWS V13.01,2013-09-03 08:43:00,
2013-09-03 04:48:00,69.1,55.5,29.18,WNW,292,0.0,0.0,62,0.00,,,0.00,VWS V13.01,2013-09-03 08:48:00,
2013-09-03 04:53:00,69.1,55.5,29.18,WSW,243,0.0,0.0,62,0.00,,,0.00,VWS V13.01,2013-09-03 08:53:00,
2013-09-03 04:58:00,69.1,55.5,29.18,WSW,238,2.2,2.7,62,0.00,,,0.00,VWS V13.01,2013-09-03 08:58:00,
2013-09-03 05:03:00,68.9,55.4,29.18,WSW,238,2.7,2.7,62,0.00,,,0.00,VWS V13.01,2013-09-03 09:03:00,
2013-09-03 05:08:00,68.7,55.2,29.18,WSW,257,0.0,2.7,62,0.00,,,0.00,VWS V13.01,2013-09-03 09:08:00,
2013-09-03 05:13:00,68.7,55.2,29.18,NNW,340,0.0,0.0,62,0.00,,,0.00,VWS V13.01,2013-09-03 09:13:00,
2013-09-03 05:18:00,68.7,55.2,29.18,WSW,241,0.0,0.0,62,0.00,,,0.00,VWS V13.01,2013-09-03 09:18:00,
2013-09-03 05:23:00,68.5,55.0,29.18,NW,309,0.0,2.7,62,0.00,,,0.00,VWS V13.01,2013-09-03 09:23:00,
2013-09-03 05:28:00,68.5,55.0,29.18,NNW,345,0.0,0.0,62,0.00,,,0.00,VWS V13.01,2013-09-03 09:28:00,
2013-09-03 05:33:00,68.4,54.8,29.18,NNW,328,0.0,0.0,62,0.00,,,0.00,VWS V13.01,2013-09-03 09:33:00,
2013-09-03 05:38:00,68.4,54.8,29.18,NNW,328,0.0,0.0,62,0.00,,,0.00,VWS V13.01,2013-09-03 09:38:00,
2013-09-03 05:43:00,68.4,54.8,29.18,WSW,257,0.0,0.0,62,0.00,,,0.00,VWS V13.01,2013-09-03 09:43:00,
2013-09-03 05:48:00,68.4,54.8,29.18,WSW,237,0.0,2.2,62,0.00,,,0.00,VWS V13.01,2013-09-03 09:48:00,
2013-09-03 05:53:00,68.2,54.7,29.18,West,267,0.0,0.0,62,0.00,,,0.00,VWS V13.01,2013-09-03 09:53:00,
2013-09-03 05:58:00,68.2,54.7,29.18,West,267,0.0,0.0,62,0.00,,,0.00,VWS V13.01,2013-09-03 09:58:00,
2013-09-03 06:03:00,68.2,55.1,29.18,West,268,0.0,3.1,63,0.00,,,0.00,VWS V13.01,2013-09-03 10:03:00,
2013-09-03 06:08:00,68.0,55.0,29.18,NW,310,0.0,0.0,63,0.00,,,0.00,VWS V13.01,2013-09-03 10:08:00,
2013-09-03 06:13:00,68.0,55.0,29.21,WSW,253,0.0,0.0,63,0.00,,,0.00,VWS V13.01,2013-09-03 10:13:00,
2013-09-03 06:18:00,67.8,54.8,29.21,WNW,286,0.0,2.7,63,0.00,,,0.00,VWS V13.01,2013-09-03 10:18:00,
2013-09-03 06:23:00,67.6,54.6,29.21,WSW,245,0.0,3.1,63,0.00,,,0.00,VWS V13.01,2013-09-03 10:23:00,
2013-09-03 06:28:00,67.5,54.4,29.21,WNW,288,0.0,2.2,63,0.00,,,0.00,VWS V13.01,2013-09-03 10:28:00,
2013-09-03 06:33:00,67.3,54.3,29.21,SW,234,0.0,2.7,63,0.00,,,0.00,VWS V13.01,2013-09-03 10:33:00,
2013-09-03 06:38:00,66.9,53.9,29.21,WNW,300,0.0,0.0,63,0.00,,,0.00,VWS V13.01,2013-09-03 10:38:00,
2013-09-03 06:43:00,66.7,53.8,29.21,WNW,300,0.0,0.0,63,0.00,,,0.00,VWS V13.01,2013-09-03 10:43:00,
2013-09-03 06:48:00,66.7,53.8,29.21,WNW,300,0.0,0.0,63,0.00,,,0.00,VWS V13.01,2013-09-03 10:48:00,
2013-09-03 06:53:00,66.6,53.6,29.21,WNW,300,0.0,0.0,63,0.00,,,0.00,VWS V13.01,2013-09-03 10:53:00,
2013-09-03 06:58:00,66.6,53.6,29.21,NNW,335,0.0,0.0,63,0.00,,,0.00,VWS V13.01,2013-09-03 10:58:00,
2013-09-03 07:03:00,66.4,53.4,29.21,NNW,335,0.0,0.0,63,0.00,,,0.00,VWS V13.01,2013-09-03 11:03:00,
2013-09-03 07:08:00,66.4,53.4,29.21,NW,324,0.0,2.7,63,0.00,,,0.00,VWS V13.01,2013-09-03 11:08:00,
2013-09-03 07:13:00,66.2,53.2,29.21,NNW,340,0.0,0.0,63,0.00,,,0.00,VWS V13.01,2013-09-03 11:13:00,
2013-09-03 07:18:00,66.0,53.5,29.21,WNW,298,0.0,0.0,64,0.00,,,0.00,VWS V13.01,2013-09-03 11:18:00,
2013-09-03 07:23:00,66.0,53.5,29.21,WNW,299,0.0,0.0,64,0.00,,,0.00,VWS V13.01,2013-09-03 11:23:00,
2013-09-03 07:28:00,66.0,53.5,29.23,WNW,299,0.0,0.0,64,0.00,,,0.00,VWS V13.01,2013-09-03 11:28:00,
2013-09-03 07:33:00,66.0,53.5,29.23,WNW,294,0.0,0.0,64,0.00,,,0.00,VWS V13.01,2013-09-03 11:33:00,
2013-09-03 07:38:00,65.8,53.3,29.23,WNW,294,0.0,0.0,64,0.00,,,0.00,VWS V13.01,2013-09-03 11:38:00,
2013-09-03 07:43:00,65.8,53.3,29.23,West,275,0.0,0.0,64,0.00,,,0.00,VWS V13.01,2013-09-03 11:43:00,
2013-09-03 07:48:00,65.7,53.2,29.23,NNW,327,2.7,2.7,64,0.00,,,0.00,VWS V13.01,2013-09-03 11:48:00,
2013-09-03 07:53:00,65.7,53.2,29.23,NW,314,0.0,2.7,64,0.00,,,0.00,VWS V13.01,2013-09-03 11:53:00,
2013-09-03 07:58:00,65.7,53.2,29.23,NW,311,0.0,2.7,64,0.00,,,0.00,VWS V13.01,2013-09-03 11:58:00,
2013-09-03 08:03:00,65.7,53.2,29.23,NW,310,0.0,3.1,64,0.00,,,0.00,VWS V13.01,2013-09-03 12:03:00,
2013-09-03 08:08:00,65.7,53.2,29.23,NW,307,0.0,3.1,64,0.00,,,0.00,VWS V13.01,2013-09-03 12:08:00,
2013-09-03 08:13:00,65.7,53.2,29.23,NW,305,2.7,3.6,64,0.00,,,0.00,VWS V13.01,2013-09-03 12:13:00,
2013-09-03 08:18:00,66.0,53.5,29.23,NW,305,2.7,3.6,64,0.00,,,0.00,VWS V13.01,2013-09-03 12:18:00,
2013-09-03 08:23:00,66.2,53.7,29.23,NNW,330,0.0,0.0,64,0.00,,,0.00,VWS V13.01,2013-09-03 12:23:00,
2013-09-03 08:28:00,66.6,54.0,29.23,North,0,0.0,0.0,64,0.00,,,0.00,VWS V13.01,2013-09-03 12:28:00,
2013-09-03 08:33:00,66.9,54.4,29.23,SW,232,2.2,2.2,64,0.00,,,0.00,VWS V13.01,2013-09-03 12:33:00,
2013-09-03 08:38:00,67.3,54.7,29.23,SW,223,2.7,3.1,64,0.00,,,0.00,VWS V13.01,2013-09-03 12:38:00,
2013-09-03 08:43:00,67.6,55.0,29.23,WNW,296,0.0,2.2,64,0.00,,,0.00,VWS V13.01,2013-09-03 12:43:00,
2013-09-03 08:48:00,67.8,55.2,29.23,WNW,298,4.9,5.4,64,0.00,,,0.00,VWS V13.01,2013-09-03 12:48:00,
2013-09-03 08:53:00,67.8,55.2,29.23,NNW,341,3.6,4.0,64,0.00,,,0.00,VWS V13.01,2013-09-03 12:53:00,
2013-09-03 08:58:00,68.2,55.1,29.23,West,259,0.0,3.6,63,0.00,,,0.00,VWS V13.01,2013-09-03 12:58:00,
2013-09-03 09:03:00,68.4,55.3,29.23,South,171,2.2,4.0,63,0.00,,,0.00,VWS V13.01,2013-09-03 13:03:00,
2013-09-03 09:08:00,68.9,55.8,29.23,SW,226,2.2,3.1,63,0.00,,,0.00,VWS V13.01,2013-09-03 13:08:00,
2013-09-03 09:13:00,69.3,55.7,29.23,WSW,249,2.2,2.7,62,0.00,,,0.00,VWS V13.01,2013-09-03 13:13:00,
2013-09-03 09:18:00,69.3,55.2,29.23,WNW,295,2.7,2.7,61,0.00,,,0.00,VWS V13.01,2013-09-03 13:18:00,
2013-09-03 09:23:00,69.3,53.9,29.23,NW,305,2.7,5.4,58,0.00,,,0.00,VWS V13.01,2013-09-03 13:23:00,
2013-09-03 09:28:00,69.6,50.2,29.26,NW,309,3.1,4.9,50,0.00,,,0.00,VWS V13.01,2013-09-03 13:28:00,
2013-09-03 09:33:00,69.8,47.5,29.26,NW,324,4.0,4.0,45,0.00,,,0.00,VWS V13.01,2013-09-03 13:33:00,
2013-09-03 09:38:00,70.0,44.6,29.26,WSW,257,3.1,5.4,40,0.00,,,0.00,VWS V13.01,2013-09-03 13:38:00,
2013-09-03 09:43:00,70.2,41.3,29.26,WNW,283,3.6,5.8,35,0.00,,,0.00,VWS V13.01,2013-09-03 13:43:00,
2013-09-03 09:48:00,70.2,40.5,29.26,NW,311,3.6,4.9,34,0.00,,,0.00,VWS V13.01,2013-09-03 13:48:00,
2013-09-03 09:53:00,70.3,39.9,29.26,WNW,301,4.0,5.8,33,0.00,,,0.00,VWS V13.01,2013-09-03 13:53:00,
2013-09-03 09:58:00,70.7,39.4,29.26,WNW,287,0.0,5.8,32,0.00,,,0.00,VWS V13.01,2013-09-03 13:58:00,
2013-09-03 10:03:00,71.1,39.7,29.26,NW,320,3.1,5.8,32,0.00,,,0.00,VWS V13.01,2013-09-03 14:03:00,
2013-09-03 10:08:00,71.1,38.9,29.26,West,281,5.8,5.8,31,0.00,,,0.00,VWS V13.01,2013-09-03 14:08:00,
2013-09-03 10:13:00,71.1,38.9,29.26,West,278,5.4,5.8,31,0.00,,,0.00,VWS V13.01,2013-09-03 14:13:00,
2013-09-03 10:18:00,71.2,38.2,29.26,WSW,252,2.7,4.9,30,0.00,,,0.00,VWS V13.01,2013-09-03 14:18:00,
2013-09-03 10:23:00,71.4,37.5,29.26,NNW,344,3.6,6.7,29,0.00,,,0.00,VWS V13.01,2013-09-03 14:23:00,
2013-09-03 10:28:00,71.8,37.8,29.26,WNW,303,0.0,4.9,29,0.00,,,0.00,VWS V13.01,2013-09-03 14:28:00,
2013-09-03 10:33:00,72.0,35.2,29.26,WNW,293,0.0,6.3,26,0.00,,,0.00,VWS V13.01,2013-09-03 14:33:00,
2013-09-03 10:38:00,72.1,34.4,29.26,NW,320,5.8,5.8,25,0.00,,,0.00,VWS V13.01,2013-09-03 14:38:00,
2013-09-03 10:43:00,72.1,34.4,29.26,NW,310,5.4,5.4,25,0.00,,,0.00,VWS V13.01,2013-09-03 14:43:00,
2013-09-03 10:48:00,72.3,34.6,29.26,NW,308,3.6,5.4,25,0.00,,,0.00,VWS V13.01,2013-09-03 14:48:00,
2013-09-03 10:53:00,72.7,34.9,29.26,NW,317,4.0,4.0,25,0.00,,,0.00,VWS V13.01,2013-09-03 14:53:00,
2013-09-03 10:58:00,72.9,34.0,29.26,SW,236,4.0,4.9,24,0.00,,,0.00,VWS V13.01,2013-09-03 14:58:00,
2013-09-03 11:03:00,72.9,34.0,29.26,West,281,0.0,6.3,24,0.00,,,0.00,VWS V13.01,2013-09-03 15:03:00,
2013-09-03 11:08:00,73.0,33.1,29.26,SW,235,3.1,5.8,23,0.00,,,0.00,VWS V13.01,2013-09-03 15:08:00,
2013-09-03 11:13:00,73.4,33.4,29.26,SW,226,5.8,5.8,23,0.00,,,0.00,VWS V13.01,2013-09-03 15:13:00,
2013-09-03 11:18:00,73.6,32.4,29.26,WSW,250,5.4,7.6,22,0.00,,,0.00,VWS V13.01,2013-09-03 15:18:00,
2013-09-03 11:23:00,73.9,33.8,29.26,WSW,252,3.6,3.6,23,0.00,,,0.00,VWS V13.01,2013-09-03 15:23:00,
2013-09-03 11:28:00,74.1,32.9,29.26,West,278,4.0,6.3,22,0.00,,,0.00,VWS V13.01,2013-09-03 15:28:00,
2013-09-03 11:33:00,74.1,32.9,29.26,SSW,208,2.7,6.7,22,0.00,,,0.00,VWS V13.01,2013-09-03 15:33:00,
2013-09-03 11:38:00,74.5,32.0,29.26,WSW,238,4.9,6.3,21,0.00,,,0.00,VWS V13.01,2013-09-03 15:38:00,
2013-09-03 11:43:00,74.5,32.0,29.26,WSW,243,5.8,5.8,21,0.00,,,0.00,VWS V13.01,2013-09-03 15:43:00,
2013-09-03 11:48:00,74.8,32.3,29.26,West,277,6.7,6.7,21,0.00,,,0.00,VWS V13.01,2013-09-03 15:48:00,
2013-09-03 11:53:00,75.0,32.5,29.26,NNW,331,3.1,8.3,21,0.00,,,0.00,VWS V13.01,2013-09-03 15:53:00,
2013-09-03 11:58:00,75.7,31.9,29.26,SW,225,0.0,4.9,20,0.00,,,0.00,VWS V13.01,2013-09-03 15:58:00,
2013-09-03 12:03:00,76.3,32.3,29.26,WNW,300,5.4,5.8,20,0.00,,,0.00,VWS V13.01,2013-09-03 16:03:00,
2013-09-03 12:08:00,76.3,29.7,29.26,West,278,0.0,4.0,18,0.00,,,0.00,VWS V13.01,2013-09-03 16:08:00,
2013-09-03 12:13:00,76.3,25.3,29.26,NW,316,5.8,6.3,15,0.00,,,0.00,VWS V13.01,2013-09-03 16:13:00,
2013-09-03 12:18:00,76.8,25.7,29.26,WNW,282,5.4,6.3,15,0.00,,,0.00,VWS V13.01,2013-09-03 16:18:00,
2013-09-03 12:23:00,77.2,22.6,29.26,NW,315,3.1,8.1,13,0.00,,,0.00,VWS V13.01,2013-09-03 16:23:00,
2013-09-03 12:28:00,77.0,22.4,29.26,SW,230,2.2,7.6,13,0.00,,,0.00,VWS V13.01,2013-09-03 16:28:00,
2013-09-03 12:33:00,77.4,22.7,29.26,NNW,329,3.1,6.3,13,0.00,,,0.00,VWS V13.01,2013-09-03 16:33:00,
2013-09-03 12:38:00,77.7,23.0,29.26,WNW,288,3.1,5.8,13,0.00,,,0.00,VWS V13.01,2013-09-03 16:38:00,
2013-09-03 12:43:00,77.9,23.1,29.26,North,0,5.8,6.7,13,0.00,,,0.00,VWS V13.01,2013-09-03 16:43:00,
2013-09-03 12:48:00,77.7,23.0,29.26,WSW,238,3.6,4.0,13,0.00,,,0.00,VWS V13.01,2013-09-03 16:48:00,
2013-09-03 12:53:00,78.1,23.3,29.26,SE,125,0.0,3.6,13,0.00,,,0.00,VWS V13.01,2013-09-03 16:53:00,
2013-09-03 12:58:00,78.4,23.6,29.26,WNW,294,8.1,8.1,13,0.00,,,0.00,VWS V13.01,2013-09-03 16:58:00,
2013-09-03 13:03:00,78.4,23.6,29.26,WNW,299,2.7,5.8,13,0.00,,,0.00,VWS V13.01,2013-09-03 17:03:00,
2013-09-03 13:08:00,78.3,23.4,29.26,NNW,337,8.1,8.1,13,0.00,,,0.00,VWS V13.01,2013-09-03 17:08:00,
2013-09-03 13:13:00,77.9,23.1,29.26,NNW,331,4.0,7.6,13,0.00,,,0.00,VWS V13.01,2013-09-03 17:13:00,
2013-09-03 13:18:00,77.9,23.1,29.26,WNW,291,4.9,6.3,13,0.00,,,0.00,VWS V13.01,2013-09-03 17:18:00,
2013-09-03 13:23:00,78.4,23.6,29.26,WNW,283,5.4,10.5,13,0.00,,,0.00,VWS V13.01,2013-09-03 17:23:00,
2013-09-03 13:29:00,79.0,22.1,29.26,NW,308,4.0,6.3,12,0.00,,,0.00,VWS V13.01,2013-09-03 17:29:00,
2013-09-03 13:34:00,79.0,22.1,29.26,North,0,4.9,6.7,12,0.00,,,0.00,VWS V13.01,2013-09-03 17:34:00,
2013-09-03 13:39:00,79.0,22.1,29.26,NNW,340,5.8,6.3,12,0.00,,,0.00,VWS V13.01,2013-09-03 17:39:00,
2013-09-03 13:44:00,78.8,22.0,29.26,South,188,0.0,4.0,12,0.00,,,0.00,VWS V13.01,2013-09-03 17:44:00,
2013-09-03 13:49:00,79.7,22.6,29.26,SW,236,2.7,7.2,12,0.00,,,0.00,VWS V13.01,2013-09-03 17:49:00,
2013-09-03 13:54:00,79.9,18.5,29.26,SSE,159,2.2,6.7,10,0.00,,,0.00,VWS V13.01,2013-09-03 17:54:00,
2013-09-03 13:59:00,80.2,18.8,29.26,SE,131,2.7,5.4,10,0.00,,,0.00,VWS V13.01,2013-09-03 17:59:00,
2013-09-03 14:04:00,78.8,17.7,29.26,NNW,335,4.5,8.1,10,0.00,,,0.00,VWS V13.01,2013-09-03 18:04:00,
2013-09-03 14:09:00,78.1,17.1,29.26,WNW,296,4.9,8.3,10,0.00,,,0.00,VWS V13.01,2013-09-03 18:09:00,
2013-09-03 14:14:00,78.6,17.5,29.26,NNW,343,3.6,6.7,10,0.00,,,0.00,VWS V13.01,2013-09-03 18:14:00,
2013-09-03 14:19:00,78.6,17.5,29.26,North,0,3.6,7.6,10,0.00,,,0.00,VWS V13.01,2013-09-03 18:19:00,
2013-09-03 14:24:00,77.9,17.0,29.26,NW,305,4.0,5.8,10,0.00,,,0.00,VWS V13.01,2013-09-03 18:24:00,
2013-09-03 14:29:00,78.1,17.1,29.26,NW,306,6.3,6.3,10,0.00,,,0.00,VWS V13.01,2013-09-03 18:29:00,
2013-09-03 14:34:00,78.3,17.3,29.26,NW,322,5.4,8.1,10,0.00,,,0.00,VWS V13.01,2013-09-03 18:34:00,
2013-09-03 14:39:00,77.7,16.9,29.26,North,350,5.4,8.7,10,0.00,,,0.00,VWS V13.01,2013-09-03 18:39:00,
2013-09-03 14:44:00,77.5,16.7,29.26,North,353,3.1,5.4,10,0.00,,,0.00,VWS V13.01,2013-09-03 18:44:00,
2013-09-03 14:49:00,78.1,17.1,29.26,NNW,340,4.9,5.8,10,0.00,,,0.00,VWS V13.01,2013-09-03 18:49:00,
2013-09-03 14:54:00,78.3,17.3,29.26,SW,228,2.7,4.0,10,0.00,,,0.00,VWS V13.01,2013-09-03 18:54:00,
2013-09-03 14:59:00,79.0,17.8,29.26,NW,315,5.4,6.3,10,0.00,,,0.00,VWS V13.01,2013-09-03 18:59:00,
2013-09-03 15:04:00,78.8,17.7,29.26,NNW,340,7.2,9.2,10,0.00,,,0.00,VWS V13.01,2013-09-03 19:04:00,
2013-09-03 15:09:00,78.1,17.1,29.26,NNW,341,4.9,8.3,10,0.00,,,0.00,VWS V13.01,2013-09-03 19:09:00,
2013-09-03 15:14:00,78.4,17.4,29.26,NW,315,3.6,6.3,10,0.00,,,0.00,VWS V13.01,2013-09-03 19:14:00,
2013-09-03 15:19:00,78.6,17.5,29.26,NNE,29,6.3,11.0,10,0.00,,,0.00,VWS V13.01,2013-09-03 19:19:00,
2013-09-03 15:24:00,78.1,17.1,29.26,West,260,0.0,7.6,10,0.00,,,0.00,VWS V13.01,2013-09-03 19:24:00,
2013-09-03 15:29:00,77.9,17.0,29.26,WNW,287,4.0,5.8,10,0.00,,,0.00,VWS V13.01,2013-09-03 19:29:00,
2013-09-03 15:34:00,77.7,16.9,29.26,North,7,0.0,5.4,10,0.00,,,0.00,VWS V13.01,2013-09-03 19:34:00,
2013-09-03 15:39:00,78.1,17.1,29.26,NNE,22,3.1,5.4,10,0.00,,,0.00,VWS V13.01,2013-09-03 19:39:00,
2013-09-03 15:44:00,79.5,18.2,29.26,NW,317,3.1,4.9,10,0.00,,,0.00,VWS V13.01,2013-09-03 19:44:00,
2013-09-03 15:49:00,80.8,16.7,29.26,WNW,290,5.8,8.7,9,0.00,,,0.00,VWS V13.01,2013-09-03 19:49:00,
2013-09-03 15:54:00,81.0,16.9,29.26,West,263,3.6,8.3,9,0.00,,,0.00,VWS V13.01,2013-09-03 19:54:00,
2013-09-03 15:59:00,81.0,16.9,29.23,North,2,5.8,6.7,9,0.00,,,0.00,VWS V13.01,2013-09-03 19:59:00,
2013-09-03 16:04:00,81.1,17.0,29.23,South,190,3.6,4.0,9,0.00,,,0.00,VWS V13.01,2013-09-03 20:04:00,
2013-09-03 16:09:00,80.2,18.8,29.23,East,91,4.0,8.7,10,0.00,,,0.00,VWS V13.01,2013-09-03 20:09:00,
2013-09-03 16:14:00,79.9,18.5,29.26,North,353,4.0,7.6,10,0.00,,,0.00,VWS V13.01,2013-09-03 20:14:00,
2013-09-03 16:19:00,80.8,16.7,29.26,NNW,327,2.7,4.0,9,0.00,,,0.00,VWS V13.01,2013-09-03 20:19:00,
2013-09-03 16:24:00,81.0,16.9,29.26,WNW,297,4.0,8.1,9,0.00,,,0.00,VWS V13.01,2013-09-03 20:24:00,
2013-09-03 16:29:00,79.7,18.4,29.23,NW,326,7.6,7.6,10,0.00,,,0.00,VWS V13.01,2013-09-03 20:29:00,
2013-09-03 16:34:00,78.6,17.5,29.23,North,357,5.8,8.3,10,0.00,,,0.00,VWS V13.01,2013-09-03 20:34:00,
2013-09-03 16:39:00,78.1,17.1,29.23,NNW,348,2.2,8.3,10,0.00,,,0.00,VWS V13.01,2013-09-03 20:39:00,
2013-09-03 16:44:00,78.6,17.5,29.23,NNW,343,2.7,8.1,10,0.00,,,0.00,VWS V13.01,2013-09-03 20:44:00,
2013-09-03 16:49:00,79.7,18.4,29.23,NW,321,4.0,8.1,10,0.00,,,0.00,VWS V13.01,2013-09-03 20:49:00,
2013-09-03 16:54:00,80.2,18.8,29.23,WNW,300,3.1,6.3,10,0.00,,,0.00,VWS V13.01,2013-09-03 20:54:00,
2013-09-03 16:59:00,80.6,16.6,29.23,NW,313,3.1,7.6,9,0.00,,,0.00,VWS V13.01,2013-09-03 20:59:00,
2013-09-03 17:04:00,80.2,18.8,29.23,WNW,302,4.0,6.7,10,0.00,,,0.00,VWS V13.01,2013-09-03 21:04:00,
2013-09-03 17:09:00,79.5,18.2,29.23,NE,44,3.1,6.3,10,0.00,,,0.00,VWS V13.01,2013-09-03 21:09:00,
2013-09-03 17:14:00,79.9,18.5,29.23,NNW,341,8.7,8.7,10,0.00,,,0.00,VWS V13.01,2013-09-03 21:14:00,
2013-09-03 17:19:00,79.7,18.4,29.23,NNE,18,5.8,6.3,10,0.00,,,0.00,VWS V13.01,2013-09-03 21:19:00,
2013-09-03 17:24:00,79.7,18.4,29.23,NNW,341,3.1,8.1,10,0.00,,,0.00,VWS V13.01,2013-09-03 21:24:00,
2013-09-03 17:29:00,79.9,18.5,29.23,NW,322,2.7,8.7,10,0.00,,,0.00,VWS V13.01,2013-09-03 21:29:00,
2013-09-03 17:34:00,80.2,18.8,29.23,WNW,295,2.7,6.3,10,0.00,,,0.00,VWS V13.01,2013-09-03 21:34:00,
2013-09-03 17:39:00,80.2,18.8,29.23,North,357,6.3,7.2,10,0.00,,,0.00,VWS V13.01,2013-09-03 21:39:00,
2013-09-03 17:44:00,79.5,18.2,29.23,WNW,292,3.1,6.3,10,0.00,,,0.00,VWS V13.01,2013-09-03 21:44:00,
2013-09-03 17:49:00,79.3,18.1,29.23,WNW,302,4.9,6.3,10,0.00,,,0.00,VWS V13.01,2013-09-03 21:49:00,
2013-09-03 17:54:00,79.7,18.4,29.23,NNW,331,5.8,6.3,10,0.00,,,0.00,VWS V13.01,2013-09-03 21:54:00,
2013-09-03 17:59:00,79.5,18.2,29.23,NNW,334,3.1,8.1,10,0.00,,,0.00,VWS V13.01,2013-09-03 21:59:00,
2013-09-03 18:04:00,79.7,18.4,29.23,North,353,8.1,8.3,10,0.00,,,0.00,VWS V13.01,2013-09-03 22:04:00,
2013-09-03 18:09:00,79.7,18.4,29.23,NW,310,3.6,8.1,10,0.00,,,0.00,VWS V13.01,2013-09-03 22:09:00,
2013-09-03 18:14:00,79.7,18.4,29.23,North,2,3.6,6.7,10,0.00,,,0.00,VWS V13.01,2013-09-03 22:14:00,
2013-09-03 18:19:00,79.7,18.4,29.23,NNW,344,2.2,6.3,10,0.00,,,0.00,VWS V13.01,2013-09-03 22:19:00,
2013-09-03 18:24:00,79.7,18.4,29.23,NW,308,3.1,7.6,10,0.00,,,0.00,VWS V13.01,2013-09-03 22:24:00,
2013-09-03 18:29:00,79.3,18.1,29.23,North,353,6.3,8.1,10,0.00,,,0.00,VWS V13.01,2013-09-03 22:29:00,
2013-09-03 18:34:00,79.0,17.8,29.23,NNW,334,6.3,7.6,10,0.00,,,0.00,VWS V13.01,2013-09-03 22:34:00,
2013-09-03 18:39:00,78.8,17.7,29.23,WNW,302,5.8,5.8,10,0.00,,,0.00,VWS V13.01,2013-09-03 22:39:00,
2013-09-03 18:44:00,79.0,17.8,29.23,NNW,337,3.6,6.3,10,0.00,,,0.00,VWS V13.01,2013-09-03 22:44:00,
2013-09-03 18:49:00,79.0,17.8,29.23,NW,314,3.1,8.1,10,0.00,,,0.00,VWS V13.01,2013-09-03 22:49:00,
2013-09-03 18:54:00,78.8,17.7,29.23,NW,321,5.8,6.3,10,0.00,,,0.00,VWS V13.01,2013-09-03 22:54:00,
2013-09-03 18:59:00,78.8,17.7,29.23,NW,326,3.1,4.0,10,0.00,,,0.00,VWS V13.01,2013-09-03 22:59:00,
2013-09-03 19:04:00,79.0,17.8,29.23,WNW,292,3.1,3.6,10,0.00,,,0.00,VWS V13.01,2013-09-03 23:04:00,
2013-09-03 19:09:00,79.2,18.0,29.23,NNW,333,0.0,2.7,10,0.00,,,0.00,VWS V13.01,2013-09-03 23:09:00,
2013-09-03 19:14:00,79.0,17.8,29.26,NNW,338,0.0,4.0,10,0.00,,,0.00,VWS V13.01,2013-09-03 23:14:00,
2013-09-03 19:19:00,78.8,17.7,29.26,NNW,348,3.6,3.6,10,0.00,,,0.00,VWS V13.01,2013-09-03 23:19:00,
2013-09-03 19:24:00,78.1,17.1,29.26,North,0,0.0,3.1,10,0.00,,,0.00,VWS V13.01,2013-09-03 23:24:00,
2013-09-03 19:29:00,77.4,16.6,29.26,North,9,2.2,5.8,10,0.00,,,0.00,VWS V13.01,2013-09-03 23:29:00,
2013-09-03 19:34:00,77.0,16.3,29.26,NE,45,2.7,4.0,10,0.00,,,0.00,VWS V13.01,2013-09-03 23:34:00,
2013-09-03 19:39:00,76.5,15.9,29.26,NNW,339,3.6,3.6,10,0.00,,,0.00,VWS V13.01,2013-09-03 23:39:00,
2013-09-03 19:44:00,75.9,15.5,29.26,North,357,0.0,3.1,10,0.00,,,0.00,VWS V13.01,2013-09-03 23:44:00,
2013-09-03 19:49:00,75.2,14.9,29.26,North,357,0.0,0.0,10,0.00,,,0.00,VWS V13.01,2013-09-03 23:49:00,
2013-09-03 19:54:00,74.7,20.6,29.26,ENE,63,0.0,2.2,13,0.00,,,0.00,VWS V13.01,2013-09-03 23:54:00,
2013-09-03 19:59:00,74.1,20.2,29.26,ENE,64,0.0,0.0,13,0.00,,,0.00,VWS V13.01,2013-09-03 23:59:00,
2013-09-03 20:04:00,73.4,19.6,29.26,ENE,64,0.0,0.0,13,0.00,,,0.00,VWS V13.01,2013-09-04 00:04:00,
2013-09-03 20:09:00,72.7,20.8,29.26,ENE,63,0.0,0.0,14,0.00,,,0.00,VWS V13.01,2013-09-04 00:09:00,
2013-09-03 20:14:00,71.8,23.2,29.26,ENE,63,0.0,0.0,16,0.00,,,0.00,VWS V13.01,2013-09-04 00:14:00,
2013-09-03 20:19:00,71.1,26.8,29.26,ENE,63,0.0,0.0,19,0.00,,,0.00,VWS V13.01,2013-09-04 00:19:00,
2013-09-03 20:24:00,70.5,31.0,29.26,NNE,14,0.0,0.0,23,0.00,,,0.00,VWS V13.01,2013-09-04 00:24:00,
2013-09-03 20:29:00,70.2,30.7,29.26,NNE,14,0.0,0.0,23,0.00,,,0.00,VWS V13.01,2013-09-04 00:29:00,
2013-09-03 20:34:00,69.8,30.4,29.26,NNE,14,0.0,0.0,23,0.00,,,0.00,VWS V13.01,2013-09-04 00:34:00,
2013-09-03 20:39:00,69.6,30.2,29.26,NNE,14,0.0,0.0,23,0.00,,,0.00,VWS V13.01,2013-09-04 00:39:00,
2013-09-03 20:44:00,69.4,33.1,29.26,NNE,14,0.0,0.0,26,0.00,,,0.00,VWS V13.01,2013-09-04 00:44:00,
2013-09-03 20:49:00,68.9,36.2,29.26,NNE,14,0.0,0.0,30,0.00,,,0.00,VWS V13.01,2013-09-04 00:49:00,
2013-09-03 20:54:00,68.5,37.5,29.26,NNE,14,2.2,2.7,32,0.00,,,0.00,VWS V13.01,2013-09-04 00:54:00,
2013-09-03 20:59:00,68.4,37.4,29.29,NNE,14,0.0,0.0,32,0.00,,,0.00,VWS V13.01,2013-09-04 00:59:00,
2013-09-03 21:04:00,68.0,37.1,29.29,NNE,14,0.0,0.0,32,0.00,,,0.00,VWS V13.01,2013-09-04 01:04:00,
2013-09-03 21:09:00,67.8,37.7,29.29,NNE,14,0.0,0.0,33,0.00,,,0.00,VWS V13.01,2013-09-04 01:09:00,
2013-09-03 21:14:00,67.6,38.3,29.29,NNE,14,0.0,0.0,34,0.00,,,0.00,VWS V13.01,2013-09-04 01:14:00,
2013-09-03 21:19:00,67.5,38.1,29.29,NNE,14,0.0,0.0,34,0.00,,,0.00,VWS V13.01,2013-09-04 01:19:00,
2013-09-03 21:24:00,67.1,38.6,29.29,NNE,14,0.0,0.0,35,0.00,,,0.00,VWS V13.01,2013-09-04 01:24:00,
2013-09-03 21:29:00,66.9,38.4,29.29,NNE,14,0.0,0.0,35,0.00,,,0.00,VWS V13.01,2013-09-04 01:29:00,
2013-09-03 21:34:00,66.7,39.0,29.29,NE,55,0.0,0.0,36,0.00,,,0.00,VWS V13.01,2013-09-04 01:34:00,
2013-09-03 21:39:00,66.6,38.8,29.29,NE,55,0.0,0.0,36,0.00,,,0.00,VWS V13.01,2013-09-04 01:39:00,
2013-09-03 21:44:00,66.4,38.6,29.29,NE,55,0.0,0.0,36,0.00,,,0.00,VWS V13.01,2013-09-04 01:44:00,
2013-09-03 21:49:00,66.4,39.3,29.29,North,1,0.0,0.0,37,0.00,,,0.00,VWS V13.01,2013-09-04 01:49:00,
2013-09-03 21:54:00,66.2,40.5,29.29,North,1,0.0,0.0,39,0.00,,,0.00,VWS V13.01,2013-09-04 01:54:00,
2013-09-03 21:59:00,66.0,40.4,29.29,North,1,0.0,0.0,39,0.00,,,0.00,VWS V13.01,2013-09-04 01:59:00,
2013-09-03 22:04:00,66.0,40.4,29.29,North,1,0.0,0.0,39,0.00,,,0.00,VWS V13.01,2013-09-04 02:04:00,
2013-09-03 22:09:00,65.8,40.9,29.29,North,1,0.0,0.0,40,0.00,,,0.00,VWS V13.01,2013-09-04 02:09:00,
2013-09-03 22:14:00,65.7,40.7,29.29,North,1,0.0,0.0,40,0.00,,,0.00,VWS V13.01,2013-09-04 02:14:00,
2013-09-03 22:19:00,65.3,41.0,29.29,North,1,0.0,0.0,41,0.00,,,0.00,VWS V13.01,2013-09-04 02:19:00,
2013-09-03 22:24:00,65.1,41.5,29.29,North,1,0.0,0.0,42,0.00,,,0.00,VWS V13.01,2013-09-04 02:24:00,
2013-09-03 22:29:00,64.9,41.9,29.32,North,1,0.0,0.0,43,0.00,,,0.00,VWS V13.01,2013-09-04 02:29:00,
2013-09-03 22:34:00,64.8,41.8,29.32,North,1,0.0,0.0,43,0.00,,,0.00,VWS V13.01,2013-09-04 02:34:00,
2013-09-03 22:39:00,64.8,41.8,29.32,North,1,0.0,0.0,43,0.00,,,0.00,VWS V13.01,2013-09-04 02:39:00,
2013-09-03 22:44:00,64.4,42.0,29.32,North,1,0.0,0.0,44,0.00,,,0.00,VWS V13.01,2013-09-04 02:44:00,
2013-09-03 22:49:00,64.2,41.9,29.32,North,1,0.0,0.0,44,0.00,,,0.00,VWS V13.01,2013-09-04 02:49:00,
2013-09-03 22:54:00,64.2,42.5,29.32,North,1,0.0,0.0,45,0.00,,,0.00,VWS V13.01,2013-09-04 02:54:00,
2013-09-03 22:59:00,64.0,42.3,29.32,North,1,0.0,0.0,45,0.00,,,0.00,VWS V13.01,2013-09-04 02:59:00,
2013-09-03 23:04:00,64.0,42.3,29.32,North,1,0.0,0.0,45,0.00,,,0.00,VWS V13.01,2013-09-04 03:04:00,
2013-09-03 23:09:00,64.0,42.9,29.32,North,1,0.0,0.0,46,0.00,,,0.00,VWS V13.01,2013-09-04 03:09:00,
2013-09-03 23:14:00,63.9,42.7,29.32,North,1,0.0,0.0,46,0.00,,,0.00,VWS V13.01,2013-09-04 03:14:00,
2013-09-03 23:19:00,63.5,42.4,29.32,North,1,0.0,0.0,46,0.00,,,0.00,VWS V13.01,2013-09-04 03:19:00,
2013-09-03 23:24:00,63.5,42.9,29.32,North,1,0.0,0.0,47,0.00,,,0.00,VWS V13.01,2013-09-04 03:24:00,
2013-09-03 23:29:00,63.5,42.9,29.32,North,1,0.0,0.0,47,0.00,,,0.00,VWS V13.01,2013-09-04 03:29:00,
2013-09-03 23:34:00,63.3,42.8,29.32,North,1,0.0,0.0,47,0.00,,,0.00,VWS V13.01,2013-09-04 03:34:00,
2013-09-03 23:39:00,63.3,42.8,29.32,North,1,0.0,0.0,47,0.00,,,0.00,VWS V13.01,2013-09-04 03:39:00,
2013-09-03 23:44:00,63.1,42.6,29.32,North,1,0.0,0.0,47,0.00,,,0.00,VWS V13.01,2013-09-04 03:44:00,
2013-09-03 23:49:00,63.1,42.6,29.32,North,1,0.0,0.0,47,0.00,,,0.00,VWS V13.01,2013-09-04 03:49:00,
2013-09-03 23:54:00,63.0,43.0,29.32,North,1,0.0,0.0,48,0.00,,,0.00,VWS V13.01,2013-09-04 03:54:00,
2013-09-03 23:59:00,63.0,43.0,29.32,North,1,0.0,0.0,48,0.00,,,0.00,VWS V13.01,2013-09-04 03:59:00,